GRZ521 Details

Departure: Adak Airport (PADK)
Arrival: Ted Stevens Anchorage International Airport (PANC) at N/A
Route: ADK028021 SIYNY G8 AUB STREW V456 TUCKS AMOTT4
Notes:


Current Weather Information
PADK 250356Z AUTO 36014KT 10SM OVC042 11/08 A3023 RMK AO2 SLP237 T01110078
PANC 250353Z 24005KT 10SM FEW060 SCT200 18/07 A2975 RMK AO2 SLP075 T01830072